createdAt,value
2022-08-01T00:01:58.069Z,68.23
2022-08-01T00:04:15.187Z,67.11
2022-08-01T00:06:32.180Z,67.44
2022-08-01T00:08:50.193Z,66.79
2022-08-01T00:11:07.451Z,67.73
2022-08-01T00:13:24.463Z,67.58
2022-08-01T00:15:41.437Z,68.12
2022-08-01T00:18:11.731Z,68.83
2022-08-01T00:20:28.693Z,67.91
2022-08-01T00:22:47.185Z,67.89
2022-08-01T00:25:04.449Z,67.55
2022-08-01T00:27:21.433Z,67.94
2022-08-01T00:30:10.152Z,68.50
2022-08-01T00:32:15.345Z,68.19
2022-08-01T00:34:32.361Z,68.32
2022-08-01T00:36:49.410Z,68.10
2022-08-01T00:39:07.446Z,69.08
2022-08-01T00:41:24.802Z,69.08
2022-08-01T00:43:42.862Z,69.08
2022-08-01T00:45:59.876Z,69.72
2022-08-01T00:48:17.198Z,69.83
2022-08-01T00:50:34.109Z,69.58
2022-08-01T00:52:51.453Z,69.57
2022-08-01T00:55:08.976Z,69.43
2022-08-01T00:57:40.055Z,70.02
2022-08-01T01:00:07.463Z,69.98
2022-08-01T01:02:24.691Z,70.70
2022-08-01T01:04:41.913Z,70.22
2022-08-01T01:06:59.262Z,70.09
2022-08-01T01:09:16.327Z,69.16
2022-08-01T01:11:33.679Z,69.92
2022-08-01T01:13:51.057Z,69.76
2022-08-01T01:16:08.458Z,69.75
2022-08-01T01:18:26.726Z,70.00
2022-08-01T01:20:45.079Z,69.98
2022-08-01T01:23:02.130Z,69.60
2022-08-01T01:25:19.372Z,70.22
2022-08-01T01:27:37.487Z,70.01
2022-08-01T01:30:00.238Z,70.05
2022-08-01T01:32:18.314Z,69.22
2022-08-01T01:34:35.288Z,69.39
2022-08-01T01:36:52.339Z,69.95
2022-08-01T01:39:09.647Z,70.32
2022-08-01T01:41:26.678Z,69.79
2022-08-01T01:43:43.696Z,69.79
2022-08-01T01:46:00.797Z,70.57
2022-08-01T01:48:19.119Z,70.74
2022-08-01T01:50:36.397Z,70.84
2022-08-01T01:52:54.429Z,71.02
2022-08-01T01:55:12.670Z,71.06
2022-08-01T01:57:29.695Z,71.64
2022-08-01T01:59:46.771Z,71.89
2022-08-01T02:02:06.359Z,72.25
2022-08-01T02:04:25.506Z,71.28
2022-08-01T02:06:42.884Z,72.19
2022-08-01T02:09:00.211Z,71.25
2022-08-01T02:11:17.219Z,72.64
2022-08-01T02:13:34.531Z,72.38
2022-08-01T02:15:59.901Z,72.84
2022-08-01T02:18:17.920Z,73.04
2022-08-01T02:20:40.885Z,72.67
2022-08-01T02:22:58.167Z,72.80
2022-08-01T02:25:15.497Z,72.34
2022-08-01T02:27:32.732Z,72.83
2022-08-01T02:29:49.781Z,71.96
2022-08-01T02:32:07.457Z,72.46
2022-08-01T02:34:25.600Z,72.29
2022-08-01T02:36:42.704Z,72.33
2022-08-01T02:38:59.794Z,73.08
2022-08-01T02:41:17.110Z,73.25
2022-08-01T02:43:34.158Z,73.69
2022-08-01T02:45:51.436Z,73.28
2022-08-01T02:48:08.773Z,73.25
2022-08-01T02:50:27.106Z,72.30
2022-08-01T02:52:44.202Z,72.14
2022-08-01T02:55:02.481Z,72.41
2022-08-01T02:57:19.530Z,72.33
2022-08-01T02:59:38.489Z,73.54
2022-08-01T03:01:58.621Z,73.74
2022-08-01T03:04:17.914Z,72.86
2022-08-01T03:06:35.007Z,73.17
2022-08-01T03:08:52.364Z,73.21
2022-08-01T03:11:10.769Z,73.23
2022-08-01T03:13:28.068Z,73.05
2022-08-01T03:15:45.235Z,74.29
2022-08-01T03:18:02.211Z,75.24
2022-08-01T03:20:19.523Z,74.32
2022-08-01T03:22:36.816Z,75.06
2022-08-01T03:24:54.163Z,74.82
2022-08-01T03:27:11.463Z,76.35
2022-08-01T03:29:31.084Z,76.64
2022-08-01T03:31:48.419Z,75.33
2022-08-01T03:34:06.107Z,76.45
2022-08-01T03:36:23.541Z,76.30
2022-08-01T03:38:40.885Z,76.50
2022-08-01T03:40:57.938Z,75.75
2022-08-01T03:43:15.195Z,75.69
2022-08-01T03:45:32.250Z,76.66
2022-08-01T03:47:49.319Z,75.88
2022-08-01T03:50:12.315Z,75.73
2022-08-01T03:52:29.946Z,75.89
2022-08-01T03:54:47.225Z,76.59
2022-08-01T03:57:04.134Z,75.47
2022-08-01T03:59:21.550Z,76.48
2022-08-01T04:01:38.564Z,77.47
2022-08-01T04:03:55.755Z,77.53
2022-08-01T04:06:12.839Z,76.69
2022-08-01T04:08:30.109Z,76.16
2022-08-01T04:10:47.443Z,75.40
2022-08-01T04:13:07.840Z,77.20
2022-08-01T04:15:25.186Z,78.43
2022-08-01T04:17:42.514Z,76.63
2022-08-01T04:19:59.489Z,76.40
2022-08-01T04:22:16.830Z,77.19
2022-08-01T04:24:33.872Z,78.53
2022-08-01T04:26:51.374Z,78.18
2022-08-01T04:29:08.416Z,77.10
2022-08-01T04:31:25.586Z,76.24
2022-08-01T04:33:42.573Z,77.43
2022-08-01T04:36:02.740Z,77.36
2022-08-01T04:38:21.677Z,76.04
2022-08-01T04:40:41.374Z,76.57
2022-08-01T04:42:58.299Z,76.19
2022-08-01T04:45:15.241Z,77.21
2022-08-01T04:47:32.543Z,78.22
2022-08-01T04:49:49.871Z,77.32
2022-08-01T04:52:07.335Z,77.07
2022-08-01T04:54:25.713Z,78.24
2022-08-01T04:56:43.072Z,77.89
2022-08-01T04:59:00.333Z,76.94
2022-08-01T05:01:17.669Z,76.89
2022-08-01T05:03:38.688Z,76.82
2022-08-01T05:05:57.146Z,76.63
2022-08-01T05:08:14.258Z,76.77
2022-08-01T05:10:32.158Z,77.21
2022-08-01T05:12:50.220Z,77.13
2022-08-01T05:15:10.454Z,77.61
2022-08-01T05:17:31.991Z,76.59
2022-08-01T05:19:49.273Z,76.59
2022-08-01T05:22:06.678Z,77.29
2022-08-01T05:24:23.846Z,77.38
2022-08-01T05:26:40.999Z,75.93
2022-08-01T05:28:58.995Z,75.85
2022-08-01T05:31:16.035Z,77.08
2022-08-01T05:33:33.362Z,75.29
2022-08-01T05:35:50.357Z,75.85
2022-08-01T05:38:07.354Z,75.18
2022-08-01T05:40:30.585Z,74.90
2022-08-01T05:42:47.968Z,74.43
2022-08-01T05:45:05.016Z,75.43
2022-08-01T05:47:23.293Z,74.64
2022-08-01T05:49:41.394Z,74.38
2022-08-01T05:51:58.455Z,75.07
2022-08-01T05:54:15.536Z,74.82
2022-08-01T05:56:32.796Z,74.46
2022-08-01T05:58:51.099Z,74.29
2022-08-01T06:01:08.308Z,73.21
2022-08-01T06:03:25.482Z,73.09
2022-08-01T06:05:42.804Z,72.76
2022-08-01T06:07:59.837Z,71.36
2022-08-01T06:10:17.154Z,72.48
2022-08-01T06:12:35.742Z,71.27
2022-08-01T06:14:53.138Z,71.19
2022-08-01T06:17:12.986Z,71.54
2022-08-01T06:19:29.964Z,70.11
2022-08-01T06:21:47.047Z,71.72
2022-08-01T06:24:04.408Z,71.77
2022-08-01T06:26:21.451Z,71.46
2022-08-01T06:28:38.537Z,69.91
2022-08-01T06:30:55.410Z,70.58
2022-08-01T06:33:12.490Z,69.44
2022-08-01T06:35:30.482Z,69.85
2022-08-01T06:37:47.476Z,69.05
2022-08-01T06:40:05.487Z,68.93
2022-08-01T06:42:22.431Z,68.63
2022-08-01T06:44:42.135Z,67.42
2022-08-01T06:46:59.153Z,66.29
2022-08-01T06:49:16.538Z,67.12
2022-08-01T06:51:33.707Z,67.42
2022-08-01T06:53:51.042Z,66.62
2022-08-01T06:56:08.402Z,66.92
2022-08-01T06:58:30.828Z,66.57
2022-08-01T07:00:52.544Z,66.62
2022-08-01T07:03:13.290Z,65.65
2022-08-01T07:05:31.341Z,64.83
2022-08-01T07:07:48.400Z,65.18
2022-08-01T07:10:05.320Z,65.81
2022-08-01T07:12:22.315Z,64.91
2022-08-01T07:14:39.398Z,64.19
2022-08-01T07:16:57.387Z,65.01
2022-08-01T07:19:24.962Z,64.92
2022-08-01T07:21:42.046Z,65.07
2022-08-01T07:24:02.283Z,64.57
2022-08-01T07:26:30.464Z,65.30
2022-08-01T07:28:47.741Z,64.45
2022-08-01T07:31:04.804Z,64.21
2022-08-01T07:33:24.306Z,64.97
2022-08-01T07:35:41.421Z,64.59
2022-08-01T07:37:58.877Z,64.59
2022-08-01T07:40:17.173Z,65.15
2022-08-01T07:42:34.249Z,65.68
2022-08-01T07:44:51.280Z,63.82
2022-08-01T07:47:09.289Z,64.58
2022-08-01T07:49:26.598Z,64.15
2022-08-01T07:51:43.919Z,62.28
2022-08-01T07:54:21.858Z,60.68
2022-08-01T07:56:51.015Z,60.23
2022-08-01T07:59:08.042Z,59.81
2022-08-01T08:01:26.101Z,59.02
2022-08-01T08:03:43.395Z,58.21
2022-08-01T08:06:00.665Z,59.07
2022-08-01T08:08:17.663Z,56.85
2022-08-01T08:10:35.893Z,57.47
2022-08-01T08:12:53.990Z,56.84
2022-08-01T08:15:11.054Z,58.07
2022-08-01T08:17:28.380Z,57.59
2022-08-01T08:19:45.459Z,57.41
2022-08-01T08:22:02.508Z,59.47
2022-08-01T08:24:19.851Z,59.20
2022-08-01T08:26:38.182Z,58.76
2022-08-01T08:28:55.751Z,58.49
2022-08-01T08:31:50.646Z,58.51
2022-08-01T08:33:50.736Z,59.54
2022-08-01T08:36:08.533Z,58.51
2022-08-01T08:38:28.523Z,58.60
2022-08-01T08:40:47.211Z,59.02
2022-08-01T08:43:04.162Z,59.02
2022-08-01T08:45:22.259Z,57.98
2022-08-01T08:47:59.543Z,58.69
2022-08-01T08:50:16.901Z,58.47
2022-08-01T08:52:33.920Z,57.89
2022-08-01T08:54:51.216Z,58.42
2022-08-01T08:57:08.245Z,57.48
2022-08-01T08:59:25.267Z,57.30
2022-08-01T09:01:42.223Z,56.22
2022-08-01T09:03:59.286Z,55.51
2022-08-01T09:06:16.327Z,54.16
2022-08-01T09:08:33.450Z,53.56
2022-08-01T09:10:51.443Z,53.81
2022-08-01T09:13:08.745Z,53.23
2022-08-01T09:15:28.164Z,55.07
2022-08-01T09:17:51.171Z,54.18
2022-08-01T09:20:08.493Z,55.10
2022-08-01T09:22:25.469Z,55.62
2022-08-01T09:24:42.533Z,55.22
2022-08-01T09:26:59.873Z,56.78
2022-08-01T09:29:28.960Z,56.47
2022-08-01T09:31:55.411Z,57.29
2022-08-01T09:34:12.794Z,56.60
2022-08-01T09:36:30.317Z,57.23
2022-08-01T09:38:51.053Z,57.50
2022-08-01T09:41:09.315Z,56.85
2022-08-01T09:43:32.057Z,56.53
2022-08-01T09:45:50.826Z,55.22
2022-08-01T09:48:10.900Z,53.06
2022-08-01T09:50:28.974Z,51.46
2022-08-01T09:52:45.987Z,50.78
2022-08-01T09:55:08.498Z,49.99
2022-08-01T09:57:25.596Z,49.84
2022-08-01T09:59:57.770Z,49.56
2022-08-01T10:02:15.941Z,50.29
2022-08-01T10:04:32.981Z,51.29
2022-08-01T10:06:51.442Z,51.49
2022-08-01T10:09:08.726Z,51.54
2022-08-01T10:11:35.872Z,52.40
2022-08-01T10:13:53.690Z,52.33
2022-08-01T10:16:12.520Z,53.29
2022-08-01T10:18:33.056Z,52.84
2022-08-01T10:20:51.362Z,52.96
2022-08-01T10:23:09.443Z,53.60
2022-08-01T10:25:42.042Z,52.75
2022-08-01T10:28:00.809Z,52.23
2022-08-01T10:30:23.520Z,51.63
2022-08-01T10:32:41.440Z,50.40
2022-08-01T10:34:58.745Z,50.52
2022-08-01T10:37:15.869Z,50.55
2022-08-01T10:39:33.423Z,48.08
2022-08-01T10:41:50.460Z,47.89
2022-08-01T10:44:07.673Z,47.76
2022-08-01T10:46:27.204Z,47.38
2022-08-01T10:48:44.184Z,47.03
2022-08-01T10:51:02.647Z,46.52
2022-08-01T10:53:23.892Z,46.61
2022-08-01T10:55:48.554Z,45.17
2022-08-01T10:58:06.794Z,44.38
2022-08-01T11:00:23.804Z,44.49
2022-08-01T11:02:45.451Z,42.86
2022-08-01T11:05:04.289Z,44.59
2022-08-01T11:07:22.071Z,42.98
2022-08-01T11:09:43.725Z,44.45
2022-08-01T11:12:01.990Z,44.95
2022-08-01T11:14:26.464Z,46.19
2022-08-01T11:16:52.359Z,46.44
2022-08-01T11:19:09.871Z,46.45
2022-08-01T11:21:58.523Z,47.37
2022-08-01T11:24:04.163Z,46.17
2022-08-01T11:26:29.611Z,46.03
2022-08-01T11:29:10.921Z,45.49
2022-08-01T11:31:24.271Z,44.85
2022-08-01T11:33:41.264Z,44.97
2022-08-01T11:35:58.585Z,44.66
2022-08-01T11:38:15.686Z,44.73
2022-08-01T11:40:34.029Z,44.13
2022-08-01T11:42:51.385Z,44.37
2022-08-01T11:45:12.519Z,43.21
2022-08-01T11:47:33.185Z,42.09
2022-08-01T11:49:54.085Z,42.23
2022-08-01T11:52:12.428Z,41.66
2022-08-01T11:54:35.090Z,41.64
2022-08-01T11:56:54.595Z,42.44
2022-08-01T11:59:15.290Z,43.65
2022-08-01T12:01:32.907Z,42.47
2022-08-01T12:03:50.174Z,43.11
2022-08-01T12:06:08.029Z,43.33
2022-08-01T12:08:25.977Z,43.84
2022-08-01T12:10:49.549Z,45.19
2022-08-01T12:13:07.084Z,44.42
2022-08-01T12:15:24.081Z,44.72
2022-08-01T12:17:41.016Z,44.43
2022-08-01T12:20:03.629Z,43.70
2022-08-01T12:22:20.559Z,43.88
2022-08-01T12:24:37.873Z,43.54
2022-08-01T12:26:55.209Z,43.15
2022-08-01T12:29:12.281Z,43.43
2022-08-01T12:31:30.565Z,43.22
2022-08-01T12:33:47.524Z,42.90
2022-08-01T12:36:06.315Z,42.04
2022-08-01T12:38:23.285Z,43.66
2022-08-01T12:40:44.938Z,43.18
2022-08-01T12:43:02.650Z,43.32
2022-08-01T12:45:20.568Z,41.63
2022-08-01T12:47:37.916Z,42.20
2022-08-01T12:49:54.849Z,42.00
2022-08-01T12:52:13.465Z,43.50
2022-08-01T12:54:30.519Z,42.56
2022-08-01T12:56:47.829Z,42.07
2022-08-01T12:59:05.876Z,41.90
2022-08-01T13:01:25.080Z,41.97
2022-08-01T13:03:42.458Z,43.11
2022-08-01T13:06:00.538Z,43.91
2022-08-01T13:08:17.473Z,43.61
2022-08-01T13:10:36.037Z,43.36
2022-08-01T13:12:53.011Z,42.53
2022-08-01T13:15:10.316Z,43.35
2022-08-01T13:17:28.458Z,42.69
2022-08-01T13:19:45.737Z,43.27
2022-08-01T13:22:03.096Z,43.14
2022-08-01T13:24:21.085Z,42.12
2022-08-01T13:26:38.190Z,44.34
2022-08-01T13:28:55.270Z,44.02
2022-08-01T13:31:12.593Z,44.79
2022-08-01T13:33:29.545Z,44.43
2022-08-01T13:35:47.340Z,44.26
2022-08-01T13:38:04.196Z,44.19
2022-08-01T13:40:21.292Z,44.60
2022-08-01T13:42:38.906Z,44.58
2022-08-01T13:44:56.179Z,43.94
2022-08-01T13:47:15.323Z,43.69
2022-08-01T13:49:37.396Z,44.84
2022-08-01T13:51:55.349Z,43.92
2022-08-01T13:54:12.768Z,43.82
2022-08-01T13:56:30.085Z,43.48
2022-08-01T13:58:47.398Z,43.14
2022-08-01T14:01:04.821Z,43.48
2022-08-01T14:03:26.592Z,43.04
2022-08-01T14:05:51.267Z,44.58
2022-08-01T14:08:15.954Z,44.37
2022-08-01T14:10:33.958Z,43.62
2022-08-01T14:12:56.796Z,43.02
2022-08-01T14:15:15.026Z,43.61
2022-08-01T14:17:55.172Z,44.14
2022-08-01T14:20:12.638Z,44.17
2022-08-01T14:22:29.972Z,43.78
2022-08-01T14:24:47.269Z,44.95
2022-08-01T14:27:05.540Z,44.63
2022-08-01T14:29:23.484Z,43.63
2022-08-01T14:32:00.745Z,44.66
2022-08-01T14:34:20.719Z,44.51
2022-08-01T14:36:39.092Z,44.86
2022-08-01T14:39:00.103Z,43.82
2022-08-01T14:41:18.237Z,44.04
2022-08-01T14:43:35.559Z,44.00
2022-08-01T14:45:52.688Z,43.62
2022-08-01T14:48:09.799Z,44.10
2022-08-01T14:50:27.929Z,44.54
2022-08-01T14:52:45.017Z,45.43
2022-08-01T14:55:02.281Z,43.04
2022-08-01T14:57:19.507Z,43.04
2022-08-01T14:59:38.488Z,43.83
2022-08-01T15:01:55.828Z,44.49
2022-08-01T15:04:14.678Z,44.71
2022-08-01T15:06:32.089Z,44.16
2022-08-01T15:08:49.367Z,44.80
2022-08-01T15:11:07.362Z,44.36
2022-08-01T15:13:25.438Z,44.69
2022-08-01T15:15:42.736Z,44.80
2022-08-01T15:17:59.828Z,44.62
2022-08-01T15:20:16.839Z,44.91
2022-08-01T15:22:34.029Z,44.46
2022-08-01T15:24:55.436Z,44.38
2022-08-01T15:27:14.553Z,44.79
2022-08-01T15:29:32.826Z,43.59
2022-08-01T15:31:49.807Z,42.78
2022-08-01T15:34:06.714Z,43.24
2022-08-01T15:36:25.558Z,43.20
2022-08-01T15:38:42.892Z,44.38
2022-08-01T15:41:00.166Z,44.05
2022-08-01T15:43:18.066Z,43.67
2022-08-01T15:45:51.317Z,44.01
2022-08-01T15:48:08.494Z,43.16
2022-08-01T15:50:25.563Z,43.86
2022-08-01T15:52:42.932Z,45.28
2022-08-01T15:55:01.011Z,44.71
2022-08-01T15:57:18.298Z,43.78
2022-08-01T15:59:41.446Z,44.22
2022-08-01T16:01:58.939Z,45.13
2022-08-01T16:04:15.893Z,46.28
2022-08-01T16:06:34.150Z,47.12
2022-08-01T16:08:51.091Z,48.15
2022-08-01T16:11:08.435Z,49.82
2022-08-01T16:13:26.728Z,49.22
2022-08-01T16:15:43.803Z,49.97
2022-08-01T16:18:01.942Z,50.62
2022-08-01T16:20:20.217Z,50.71
2022-08-01T16:22:38.306Z,50.82
2022-08-01T16:25:00.602Z,49.77
2022-08-01T16:27:18.264Z,50.09
2022-08-01T16:29:35.455Z,49.90
2022-08-01T16:32:08.326Z,50.44
2022-08-01T16:34:28.020Z,50.73
2022-08-01T16:36:46.101Z,50.86
2022-08-01T16:39:04.202Z,51.04
2022-08-01T16:41:21.567Z,50.57
2022-08-01T16:43:39.602Z,51.00
2022-08-01T16:46:03.198Z,50.32
2022-08-01T16:48:20.471Z,50.84
2022-08-01T16:50:37.545Z,50.92
2022-08-01T16:52:58.117Z,52.01
2022-08-01T16:55:17.514Z,51.62
2022-08-01T16:57:34.604Z,51.67
2022-08-01T16:59:51.876Z,51.80
2022-08-01T17:02:09.226Z,51.27
2022-08-01T17:04:26.460Z,52.22
2022-08-01T17:06:43.415Z,51.58
2022-08-01T17:09:00.447Z,52.24
2022-08-01T17:11:17.816Z,51.92
2022-08-01T17:13:36.087Z,51.34
2022-08-01T17:15:53.179Z,51.67
2022-08-01T17:18:10.429Z,50.84
2022-08-01T17:20:28.689Z,51.32
2022-08-01T17:22:45.706Z,50.55
2022-08-01T17:25:03.665Z,50.76
2022-08-01T17:27:20.781Z,49.90
2022-08-01T17:29:43.303Z,49.66
2022-08-01T17:32:01.828Z,49.92
2022-08-01T17:34:19.151Z,49.72
2022-08-01T17:36:37.212Z,49.72
2022-08-01T17:38:54.277Z,50.10
2022-08-01T17:41:11.285Z,49.87
2022-08-01T17:43:28.781Z,49.12
2022-08-01T17:45:51.065Z,50.04
2022-08-01T17:48:08.457Z,49.21
2022-08-01T17:50:25.794Z,49.56
2022-08-01T17:52:43.886Z,48.65
2022-08-01T17:55:01.068Z,47.89
2022-08-01T17:57:20.025Z,48.41
2022-08-01T17:59:37.002Z,48.76
2022-08-01T18:01:55.279Z,48.45
2022-08-01T18:04:12.543Z,48.41
2022-08-01T18:06:29.992Z,48.44
2022-08-01T18:08:48.385Z,48.93
2022-08-01T18:11:05.386Z,47.85
2022-08-01T18:13:22.502Z,48.13
2022-08-01T18:15:39.915Z,49.10
2022-08-01T18:17:57.256Z,48.85
2022-08-01T18:20:14.259Z,48.61
2022-08-01T18:22:33.698Z,48.54
2022-08-01T18:24:51.401Z,49.62
2022-08-01T18:27:08.732Z,49.79
2022-08-01T18:29:47.093Z,51.30
2022-08-01T18:32:03.376Z,51.40
2022-08-01T18:34:20.907Z,51.65
2022-08-01T18:36:40.361Z,51.60
2022-08-01T18:38:57.829Z,52.71
2022-08-01T18:41:15.536Z,52.35
2022-08-01T18:43:32.830Z,52.12
2022-08-01T18:45:49.871Z,52.76
2022-08-01T18:48:06.903Z,52.37
2022-08-01T18:50:24.015Z,53.28
2022-08-01T18:52:41.311Z,53.08
2022-08-01T18:54:58.424Z,53.67
2022-08-01T18:57:16.731Z,53.77
2022-08-01T18:59:38.952Z,53.83
2022-08-01T19:01:57.102Z,54.41
2022-08-01T19:04:14.076Z,54.62
2022-08-01T19:06:32.720Z,54.97
2022-08-01T19:08:50.022Z,54.46
2022-08-01T19:11:06.937Z,54.55
2022-08-01T19:13:24.210Z,55.74
2022-08-01T19:15:41.565Z,55.80
2022-08-01T19:17:58.902Z,56.68
2022-08-01T19:20:15.903Z,56.91
2022-08-01T19:22:32.978Z,56.57
2022-08-01T19:24:50.341Z,57.67
2022-08-01T19:27:08.673Z,57.25
2022-08-01T19:29:35.021Z,56.91
2022-08-01T19:31:53.368Z,57.47
2022-08-01T19:34:11.386Z,57.97
2022-08-01T19:36:28.636Z,58.31
2022-08-01T19:38:46.193Z,58.72
2022-08-01T19:41:03.955Z,59.12
2022-08-01T19:43:20.915Z,59.61
2022-08-01T19:45:39.120Z,59.90
2022-08-01T19:47:57.813Z,59.59
2022-08-01T19:50:15.221Z,59.74
2022-08-01T19:52:32.230Z,59.88
2022-08-01T19:54:49.524Z,59.80
2022-08-01T19:57:08.672Z,61.07
2022-08-01T19:59:25.950Z,60.07
2022-08-01T20:01:43.300Z,62.56
2022-08-01T20:04:00.618Z,62.41
2022-08-01T20:06:20.962Z,61.69
2022-08-01T20:08:41.633Z,62.16
2022-08-01T20:11:01.967Z,63.02
2022-08-01T20:13:36.866Z,63.80
2022-08-01T20:15:56.498Z,63.81
2022-08-01T20:18:13.474Z,62.65
2022-08-01T20:20:31.673Z,62.87
2022-08-01T20:22:50.324Z,62.38
2022-08-01T20:25:07.603Z,63.20
2022-08-01T20:27:27.308Z,63.52
2022-08-01T20:29:44.574Z,64.25
2022-08-01T20:32:01.639Z,63.09
2022-08-01T20:34:19.774Z,63.55
2022-08-01T20:36:36.812Z,64.04
2022-08-01T20:38:57.724Z,64.18
2022-08-01T20:41:14.817Z,64.47
2022-08-01T20:43:34.190Z,64.37
2022-08-01T20:45:52.129Z,64.62
2022-08-01T20:48:09.178Z,64.36
2022-08-01T20:50:53.627Z,64.86
2022-08-01T20:53:04.429Z,64.74
2022-08-01T20:55:22.672Z,65.06
2022-08-01T20:57:39.716Z,65.44
2022-08-01T20:59:57.505Z,65.78
2022-08-01T21:02:15.851Z,65.83
2022-08-01T21:04:32.894Z,65.77
2022-08-01T21:06:49.981Z,65.58
2022-08-01T21:09:07.264Z,65.79
2022-08-01T21:11:24.300Z,65.92
2022-08-01T21:13:41.572Z,66.43
2022-08-01T21:16:22.162Z,66.32
2022-08-01T21:18:39.241Z,66.78
2022-08-01T21:20:58.907Z,66.79
2022-08-01T21:23:16.099Z,66.75
2022-08-01T21:25:34.468Z,66.88
2022-08-01T21:27:52.966Z,66.99
2022-08-01T21:30:10.052Z,67.06
2022-08-01T21:32:27.651Z,66.98
2022-08-01T21:34:48.822Z,67.40
2022-08-01T21:37:06.885Z,67.96
2022-08-01T21:39:23.991Z,67.24
2022-08-01T21:41:56.702Z,68.31
2022-08-01T21:44:17.898Z,67.90
2022-08-01T21:46:34.904Z,68.24
2022-08-01T21:48:52.855Z,68.02
2022-08-01T21:51:10.221Z,69.38
2022-08-01T21:53:32.372Z,68.10
2022-08-01T21:55:55.838Z,68.85
2022-08-01T21:58:13.214Z,68.21
2022-08-01T22:00:31.567Z,68.00
2022-08-01T22:02:53.810Z,67.73
2022-08-01T22:05:11.100Z,68.70
2022-08-01T22:07:28.504Z,67.94
2022-08-01T22:09:46.520Z,67.73
2022-08-01T22:12:03.630Z,68.73
2022-08-01T22:14:20.917Z,68.86
2022-08-01T22:16:38.261Z,68.11
2022-08-01T22:18:55.494Z,68.78
2022-08-01T22:21:12.805Z,69.95
2022-08-01T22:23:30.042Z,69.59
2022-08-01T22:25:47.086Z,69.98
2022-08-01T22:28:09.240Z,68.95
2022-08-01T22:30:28.525Z,69.60
2022-08-01T22:33:07.304Z,69.51
2022-08-01T22:35:23.552Z,69.14
2022-08-01T22:37:56.046Z,70.09
2022-08-01T22:40:14.151Z,70.05
2022-08-01T22:42:32.450Z,71.05
2022-08-01T22:44:59.508Z,70.14
2022-08-01T22:47:16.555Z,71.07
2022-08-01T22:49:33.950Z,71.31
2022-08-01T22:51:55.664Z,71.33
2022-08-01T22:54:14.346Z,71.23
2022-08-01T22:56:31.458Z,70.66
2022-08-01T22:58:48.468Z,72.12
2022-08-01T23:01:07.742Z,72.38
2022-08-01T23:03:24.849Z,72.11
2022-08-01T23:05:42.177Z,72.90
2022-08-01T23:08:14.555Z,71.72
2022-08-01T23:10:33.333Z,71.18
2022-08-01T23:12:50.368Z,73.25
2022-08-01T23:15:07.650Z,72.52
2022-08-01T23:17:26.357Z,73.11
2022-08-01T23:19:45.478Z,72.04
2022-08-01T23:22:02.543Z,73.37
2022-08-01T23:24:19.825Z,71.90
2022-08-01T23:26:37.116Z,73.25
2022-08-01T23:28:54.391Z,73.56
2022-08-01T23:31:11.427Z,72.79
2022-08-01T23:33:28.468Z,72.24
2022-08-01T23:35:46.508Z,71.99
2022-08-01T23:38:03.568Z,72.99
2022-08-01T23:40:20.941Z,72.94
2022-08-01T23:42:41.974Z,73.75
2022-08-01T23:45:01.213Z,72.08
2022-08-01T23:47:18.281Z,72.43
2022-08-01T23:49:35.614Z,72.54
2022-08-01T23:52:10.948Z,73.25
2022-08-01T23:54:37.512Z,73.61
2022-08-01T23:56:56.138Z,74.27
2022-08-01T23:59:13.150Z,74.03
